Time;durP1;ratioP1;P1;durP2;ratioP2;P2;SDS_P1;SDS_P2;PMS_P1;PMS_P2;Temp;Humidity;BMP_temperature;BMP_pressure;BME280_temperature;BME280_humidity;BME280_pressure;Samples;Min_cycle;Max_cycle;Signal;HPM_P1;HPM_P2
2024/02/17 00:00:01;;;;;;;13.88;6.05;;;11.10;99.90;;;;;;5036240;28;20029;-46
2024/02/17 00:02:27;;;;;;;10.98;5.70;;;11.10;99.90;;;;;;5042415;28;20112;-39
2024/02/17 00:04:53;;;;;;;10.93;5.65;;;11.10;99.90;;;;;;5054089;28;20095;-40
2024/02/17 00:07:18;;;;;;;11.65;5.75;;;11.10;99.90;;;;;;5034700;28;20398;-42
2024/02/17 00:09:44;;;;;;;15.02;6.93;;;11.10;99.90;;;;;;5034725;28;20040;-41
2024/02/17 00:12:11;;;;;;;10.63;5.68;;;11.10;99.90;;;;;;5034452;28;20505;-43
2024/02/17 00:14:36;;;;;;;15.88;6.10;;;11.10;99.90;;;;;;5037222;28;20082;-40
2024/02/17 00:17:03;;;;;;;23.17;6.78;;;11.00;99.90;;;;;;5042011;28;20112;-42
2024/02/17 00:19:29;;;;;;;9.43;5.55;;;11.10;99.90;;;;;;5039718;28;20045;-43
2024/02/17 00:21:55;;;;;;;14.45;6.20;;;11.00;99.90;;;;;;5035577;28;20501;-43
2024/02/17 00:24:20;;;;;;;14.45;5.88;;;11.10;99.90;;;;;;5038994;28;20025;-40
2024/02/17 00:26:46;;;;;;;9.82;6.15;;;11.00;99.90;;;;;;5043945;28;20035;-48
2024/02/17 00:29:12;;;;;;;16.20;7.13;;;11.00;99.90;;;;;;5051404;28;20031;-43
2024/02/17 00:31:37;;;;;;;14.05;5.85;;;11.00;99.90;;;;;;5036075;28;20029;-42
2024/02/17 00:34:04;;;;;;;12.48;6.00;;;11.00;99.90;;;;;;5047568;28;20027;-43
2024/02/17 00:36:29;;;;;;;15.63;6.30;;;11.00;99.90;;;;;;5045339;28;20051;-47
2024/02/17 00:38:55;;;;;;;11.52;5.97;;;11.00;99.90;;;;;;5035335;28;20075;-40
2024/02/17 00:41:21;;;;;;;9.77;5.88;;;11.00;99.90;;;;;;5038201;28;20100;-42
2024/02/17 00:43:46;;;;;;;20.33;6.65;;;11.00;99.90;;;;;;5038450;28;20020;-41
2024/02/17 00:46:12;;;;;;;11.57;5.68;;;11.00;99.90;;;;;;5044636;28;20021;-42
2024/02/17 00:48:38;;;;;;;14.20;5.85;;;11.00;99.90;;;;;;5047301;28;20378;-41
2024/02/17 00:51:03;;;;;;;8.48;5.22;;;11.00;99.90;;;;;;5045879;28;20029;-42
2024/02/17 00:53:29;;;;;;;10.95;4.97;;;11.00;99.90;;;;;;5050944;28;20056;-45
2024/02/17 00:55:55;;;;;;;14.50;6.35;;;11.10;99.90;;;;;;5048205;28;20028;-43
2024/02/17 00:58:20;;;;;;;11.45;5.78;;;11.10;99.90;;;;;;5051355;28;20029;-40
2024/02/17 01:00:46;;;;;;;21.02;5.40;;;11.00;99.90;;;;;;5047312;28;20025;-42
2024/02/17 01:03:12;;;;;;;9.05;4.80;;;11.00;99.90;;;;;;5036976;28;20013;-41
2024/02/17 01:05:39;;;;;;;11.43;5.05;;;11.00;99.90;;;;;;5048912;28;20500;-39
2024/02/17 01:08:08;;;;;;;10.18;5.50;;;11.00;99.90;;;;;;5043048;28;20021;-44
2024/02/17 01:10:34;;;;;;;17.67;4.68;;;10.90;99.90;;;;;;5033379;28;20057;-43
2024/02/17 01:13:01;;;;;;;11.10;5.50;;;10.90;99.90;;;;;;5043426;28;20029;-43
2024/02/17 01:15:27;;;;;;;8.52;4.63;;;10.90;99.90;;;;;;5033645;28;20025;-41
2024/02/17 01:17:53;;;;;;;9.25;5.38;;;10.90;99.90;;;;;;5033435;28;20025;-41
2024/02/17 01:20:19;;;;;;;9.57;5.18;;;11.00;99.90;;;;;;5033156;28;20041;-44
2024/02/17 01:22:44;;;;;;;8.18;4.65;;;10.90;99.90;;;;;;5033273;28;20429;-41
2024/02/17 01:25:10;;;;;;;10.88;4.95;;;10.90;99.90;;;;;;5036677;28;20025;-39
2024/02/17 01:27:36;;;;;;;7.10;4.25;;;11.00;99.90;;;;;;5035428;28;20034;-41
2024/02/17 01:30:01;;;;;;;11.77;4.45;;;10.90;99.90;;;;;;5038965;28;20029;-42
2024/02/17 01:32:27;;;;;;;12.00;4.72;;;11.00;99.90;;;;;;5044902;28;20031;-43
2024/02/17 01:34:53;;;;;;;12.13;4.60;;;10.90;99.90;;;;;;5052704;28;20025;-39
2024/02/17 01:37:18;;;;;;;8.07;4.38;;;11.00;99.90;;;;;;5043977;28;20021;-43
2024/02/17 01:39:44;;;;;;;10.35;4.68;;;11.00;99.90;;;;;;5032865;28;20060;-41
2024/02/17 01:42:11;;;;;;;10.05;4.30;;;10.90;99.90;;;;;;5037044;28;20083;-41
2024/02/17 01:44:37;;;;;;;13.13;3.97;;;10.90;99.90;;;;;;5039957;28;20382;-40
2024/02/17 01:47:03;;;;;;;10.02;4.50;;;11.00;99.90;;;;;;5033056;28;20167;-43
2024/02/17 01:49:29;;;;;;;9.95;4.15;;;11.00;99.90;;;;;;5033133;28;20492;-42
2024/02/17 01:51:56;;;;;;;9.77;3.75;;;11.00;99.90;;;;;;5036609;28;20044;-41
2024/02/17 01:54:22;;;;;;;7.80;3.92;;;11.00;99.90;;;;;;5034184;28;20473;-39
2024/02/17 01:56:49;;;;;;;4.03;3.63;;;11.00;99.90;;;;;;5033515;28;20022;-40
2024/02/17 01:59:15;;;;;;;8.18;4.03;;;11.00;99.90;;;;;;5043596;28;20021;-42
2024/02/17 02:01:43;;;;;;;11.50;4.70;;;11.00;99.90;;;;;;5044388;28;20107;-43
2024/02/17 02:04:10;;;;;;;7.97;3.80;;;11.00;99.90;;;;;;5036751;28;20436;-42
2024/02/17 02:06:38;;;;;;;8.20;3.75;;;11.00;99.90;;;;;;5031261;28;20030;-40
2024/02/17 02:09:04;;;;;;;4.10;3.17;;;11.00;99.90;;;;;;5037858;28;20519;-39
2024/02/17 02:11:30;;;;;;;11.73;3.97;;;11.00;99.90;;;;;;5045538;28;20033;-42
2024/02/17 02:14:12;;;;;;;6.70;3.40;;;11.00;99.90;;;;;;5037272;28;20029;-41
2024/02/17 02:16:37;;;;;;;5.60;2.80;;;11.00;99.90;;;;;;5045027;28;20036;-41
2024/02/17 02:19:03;;;;;;;10.15;3.83;;;11.00;99.90;;;;;;5035889;28;20045;-56
2024/02/17 02:21:29;;;;;;;4.97;3.58;;;11.00;99.90;;;;;;5047309;28;20459;-54
2024/02/17 02:23:54;;;;;;;5.63;3.42;;;11.00;99.90;;;;;;5041583;28;20033;-54
2024/02/17 02:26:20;;;;;;;4.72;2.92;;;11.00;99.90;;;;;;5039311;28;20029;-54
2024/02/17 02:28:46;;;;;;;5.55;3.10;;;11.10;99.90;;;;;;5046397;28;20072;-54
2024/02/17 02:31:11;;;;;;;4.32;2.75;;;11.10;99.90;;;;;;5039062;28;20025;-57
2024/02/17 02:33:37;;;;;;;7.47;2.80;;;11.10;99.90;;;;;;5033230;28;20482;-55
2024/02/17 02:36:03;;;;;;;4.07;2.00;;;11.10;99.90;;;;;;5033430;28;20057;-54
2024/02/17 02:38:28;;;;;;;3.05;2.03;;;11.10;99.90;;;;;;5033231;28;20033;-59
2024/02/17 02:40:54;;;;;;;4.88;2.42;;;11.10;99.90;;;;;;5039821;28;20061;-53
2024/02/17 02:43:20;;;;;;;6.60;2.05;;;11.10;99.90;;;;;;5039058;28;20030;-58
2024/02/17 02:45:46;;;;;;;4.03;2.45;;;11.10;99.90;;;;;;5043767;28;20018;-51
2024/02/17 02:48:11;;;;;;;9.65;1.70;;;11.10;99.90;;;;;;5038318;28;20036;-54
2024/02/17 02:50:37;;;;;;;3.10;1.52;;;11.10;99.90;;;;;;5050197;28;20108;-53
2024/02/17 02:53:03;;;;;;;3.35;1.77;;;11.10;99.90;;;;;;5036044;28;20029;-54
2024/02/17 02:55:28;;;;;;;4.38;2.05;;;11.00;99.90;;;;;;5035895;28;20033;-52
2024/02/17 02:57:54;;;;;;;6.15;1.65;;;11.00;99.90;;;;;;5035882;28;20382;-54
2024/02/17 03:00:20;;;;;;;4.60;1.65;;;11.10;99.90;;;;;;5038945;28;20439;-55
2024/02/17 03:02:45;;;;;;;4.57;1.95;;;11.00;99.90;;;;;;5047786;28;20028;-52
2024/02/17 03:05:11;;;;;;;5.88;1.50;;;11.00;99.90;;;;;;5038753;28;20499;-54
2024/02/17 03:07:37;;;;;;;10.25;2.03;;;11.00;99.90;;;;;;5038584;28;20025;-55
2024/02/17 03:10:06;;;;;;;3.85;1.65;;;11.00;99.90;;;;;;5035426;28;20060;-54
2024/02/17 03:12:31;;;;;;;3.53;2.90;;;11.00;99.90;;;;;;5036344;28;20033;-51
2024/02/17 03:14:58;;;;;;;2.58;1.63;;;11.00;99.90;;;;;;5035337;28;20436;-55
2024/02/17 03:17:24;;;;;;;6.85;2.10;;;11.00;99.90;;;;;;5038787;28;20025;-54
2024/02/17 03:19:51;;;;;;;5.38;2.38;;;10.90;99.90;;;;;;5038943;28;20453;-54
2024/02/17 03:22:19;;;;;;;3.38;1.98;;;10.90;99.90;;;;;;5050991;28;20470;-54
2024/02/17 03:24:45;;;;;;;6.45;2.25;;;10.90;99.90;;;;;;5035752;28;20120;-54
2024/02/17 03:27:11;;;;;;;3.60;1.70;;;10.90;99.90;;;;;;5043902;28;20078;-54
2024/02/17 03:29:37;;;;;;;6.88;2.30;;;11.00;99.90;;;;;;5041980;28;20117;-53
2024/02/17 03:32:05;;;;;;;9.07;3.03;;;10.90;99.90;;;;;;5044764;28;20097;-55
2024/02/17 03:34:31;;;;;;;8.38;1.55;;;11.00;99.90;;;;;;5051216;28;20087;-54
2024/02/17 03:36:57;;;;;;;6.65;2.30;;;11.00;99.90;;;;;;5035179;28;20022;-54
2024/02/17 03:39:23;;;;;;;3.15;2.10;;;11.00;99.90;;;;;;5040859;28;20482;-55
2024/02/17 03:41:49;;;;;;;3.95;1.73;;;11.00;99.90;;;;;;5045022;28;20033;-55
2024/02/17 03:44:16;;;;;;;10.32;1.55;;;10.90;99.90;;;;;;5035071;28;20371;-53
2024/02/17 03:46:41;;;;;;;7.43;2.38;;;10.90;99.90;;;;;;5036117;28;20025;-55
2024/02/17 03:49:07;;;;;;;6.45;2.22;;;10.90;99.90;;;;;;5035074;28;20028;-57
2024/02/17 03:51:33;;;;;;;6.82;2.63;;;10.90;99.90;;;;;;5034933;28;20490;-55
2024/02/17 03:53:59;;;;;;;6.32;2.25;;;10.90;99.90;;;;;;5035205;28;20037;-56
2024/02/17 03:56:25;;;;;;;5.75;2.55;;;10.90;99.90;;;;;;5036297;28;20052;-55
2024/02/17 03:58:50;;;;;;;6.53;2.60;;;10.90;99.90;;;;;;5035025;28;20386;-55
2024/02/17 04:01:16;;;;;;;4.53;2.10;;;10.80;99.90;;;;;;5045381;28;20025;-56
2024/02/17 04:03:42;;;;;;;12.82;2.40;;;10.80;99.90;;;;;;5053057;28;20028;-55
2024/02/17 04:06:08;;;;;;;5.28;2.30;;;10.80;99.90;;;;;;5055034;28;20099;-55
2024/02/17 04:08:34;;;;;;;3.70;2.58;;;10.70;99.90;;;;;;5042272;28;20031;-55
2024/02/17 04:11:00;;;;;;;6.90;2.53;;;10.80;99.90;;;;;;5034817;28;20031;-53
2024/02/17 04:13:27;;;;;;;7.65;2.20;;;10.80;99.90;;;;;;5038324;28;20052;-58
2024/02/17 04:15:53;;;;;;;9.82;2.72;;;10.80;99.90;;;;;;5046764;28;20385;-55
2024/02/17 04:18:18;;;;;;;4.45;2.53;;;10.80;99.90;;;;;;5038122;28;20030;-55
2024/02/17 04:20:44;;;;;;;8.13;3.17;;;10.80;99.90;;;;;;5054321;28;20036;-52
2024/02/17 04:23:10;;;;;;;7.25;2.25;;;10.90;99.90;;;;;;5054591;28;20053;-53
2024/02/17 04:25:36;;;;;;;9.52;2.88;;;10.90;99.90;;;;;;5052020;28;20375;-53
2024/02/17 04:28:04;;;;;;;6.25;2.40;;;10.80;99.90;;;;;;5043687;28;20024;-54
2024/02/17 04:30:33;;;;;;;8.43;2.30;;;10.90;99.90;;;;;;5043449;28;20437;-56
2024/02/17 04:32:59;;;;;;;9.75;2.97;;;10.90;99.90;;;;;;5038354;28;20495;-54
2024/02/17 04:35:26;;;;;;;20.60;3.45;;;10.90;99.90;;;;;;5052986;28;20533;-54
2024/02/17 04:37:53;;;;;;;7.50;2.20;;;10.90;99.90;;;;;;5037973;28;20037;-54
2024/02/17 04:40:18;;;;;;;6.90;2.47;;;10.80;99.90;;;;;;5034021;28;20112;-40
2024/02/17 04:42:44;;;;;;;13.63;3.60;;;10.80;99.90;;;;;;5043303;28;20099;-41
2024/02/17 04:45:10;;;;;;;7.15;2.53;;;10.80;99.90;;;;;;5038967;28;20029;-46
2024/02/17 04:47:37;;;;;;;5.75;3.10;;;10.80;99.90;;;;;;5046740;28;20061;-42
2024/02/17 04:50:03;;;;;;;6.85;2.97;;;10.90;99.90;;;;;;5039516;28;20478;-43
2024/02/17 04:52:28;;;;;;;9.90;2.50;;;10.90;99.90;;;;;;5033573;28;20370;-43
2024/02/17 04:54:54;;;;;;;6.63;2.75;;;10.90;99.90;;;;;;5033423;28;20079;-42
2024/02/17 04:57:20;;;;;;;4.38;2.60;;;10.90;99.90;;;;;;5040406;28;20028;-39
2024/02/17 04:59:46;;;;;;;9.23;3.15;;;11.00;99.90;;;;;;5033582;28;20072;-41
2024/02/17 05:02:12;;;;;;;8.25;3.15;;;10.90;99.90;;;;;;5033402;28;20025;-39
2024/02/17 05:04:37;;;;;;;10.27;3.25;;;10.90;99.90;;;;;;5040332;28;20036;-41
2024/02/17 05:07:03;;;;;;;7.15;3.03;;;10.90;99.90;;;;;;5045231;28;20025;-40
2024/02/17 05:09:29;;;;;;;16.00;4.22;;;10.80;99.90;;;;;;5033236;28;20033;-40
2024/02/17 05:11:55;;;;;;;7.35;2.60;;;10.80;99.90;;;;;;5033598;28;20071;-42
2024/02/17 05:14:23;;;;;;;12.98;3.90;;;10.80;99.90;;;;;;5033289;28;20029;-43
2024/02/17 05:16:49;;;;;;;6.38;2.90;;;10.70;99.90;;;;;;5034181;28;20036;-44
2024/02/17 05:19:14;;;;;;;20.20;3.83;;;10.80;99.90;;;;;;5032649;28;20656;-40
2024/02/17 05:21:43;;;;;;;11.15;3.47;;;10.70;99.90;;;;;;5043769;28;20029;-41
2024/02/17 05:24:10;;;;;;;13.38;3.47;;;10.70;99.90;;;;;;5038302;28;20025;-41
2024/02/17 05:26:37;;;;;;;8.73;4.03;;;10.80;99.90;;;;;;5047178;28;20048;-45
2024/02/17 05:29:06;;;;;;;4.88;2.95;;;10.70;99.90;;;;;;5033501;28;20482;-43
2024/02/17 05:31:32;;;;;;;6.35;3.35;;;10.70;99.90;;;;;;5044182;28;20481;-44
2024/02/17 05:33:58;;;;;;;9.75;3.92;;;10.80;99.90;;;;;;5051369;28;20024;-41
2024/02/17 05:36:24;;;;;;;10.55;3.72;;;10.70;99.90;;;;;;5046870;28;20029;-41
2024/02/17 05:38:50;;;;;;;11.00;3.55;;;10.80;99.90;;;;;;5050592;28;20025;-46
2024/02/17 05:41:16;;;;;;;10.73;3.70;;;10.70;99.90;;;;;;5052907;28;20025;-39
2024/02/17 05:43:42;;;;;;;12.00;3.60;;;10.70;99.90;;;;;;5041849;28;20553;-40
2024/02/17 05:46:08;;;;;;;11.20;3.70;;;10.70;99.90;;;;;;5032837;28;20112;-40
2024/02/17 05:48:34;;;;;;;11.75;4.05;;;10.60;99.90;;;;;;5034103;28;20022;-43
2024/02/17 05:51:00;;;;;;;7.93;3.97;;;10.60;99.90;;;;;;5033183;28;20017;-39
2024/02/17 05:53:25;;;;;;;16.70;3.67;;;10.60;99.90;;;;;;5031481;28;20030;-42
2024/02/17 05:55:51;;;;;;;16.50;3.80;;;10.60;99.90;;;;;;5042858;28;20120;-45
2024/02/17 05:58:17;;;;;;;24.20;5.05;;;10.60;99.90;;;;;;5042279;28;20076;-44
2024/02/17 06:00:42;;;;;;;12.52;4.00;;;10.60;99.90;;;;;;5037752;28;20028;-40
2024/02/17 06:03:08;;;;;;;10.23;4.25;;;10.60;99.90;;;;;;5041330;28;20040;-42
2024/02/17 06:05:34;;;;;;;16.73;4.57;;;10.60;99.90;;;;;;5043559;28;20029;-42
2024/02/17 06:07:59;;;;;;;18.10;4.57;;;10.70;99.90;;;;;;5036780;28;20060;-44
2024/02/17 06:10:25;;;;;;;12.63;3.65;;;10.70;99.90;;;;;;5032426;28;20383;-41
2024/02/17 06:12:51;;;;;;;12.60;3.70;;;10.70;99.90;;;;;;5043574;28;20497;-57
2024/02/17 06:15:17;;;;;;;12.68;5.00;;;10.70;99.90;;;;;;5045609;28;20112;-45
2024/02/17 06:17:43;;;;;;;11.15;3.75;;;10.70;99.90;;;;;;5032644;28;20045;-40
2024/02/17 06:22:59;;;;;;;10.65;3.50;;;10.70;99.90;;;;;;5045544;28;20190;-41
2024/02/17 06:25:24;;;;;;;13.40;3.72;;;10.70;99.90;;;;;;5053946;28;20128;-41
2024/02/17 06:27:50;;;;;;;18.65;4.63;;;10.70;99.90;;;;;;5049380;28;20394;-43
2024/02/17 06:30:16;;;;;;;13.00;4.18;;;10.80;99.90;;;;;;5039902;28;20040;-39
2024/02/17 06:32:42;;;;;;;12.20;3.92;;;10.70;99.90;;;;;;5043028;28;20525;-42
2024/02/17 06:35:09;;;;;;;11.45;4.05;;;10.80;99.90;;;;;;5039700;28;20114;-40
2024/02/17 06:37:35;;;;;;;4.82;3.13;;;10.80;99.90;;;;;;5034967;28;20426;-41
2024/02/17 06:40:01;;;;;;;14.38;5.13;;;10.80;99.90;;;;;;5038755;28;20465;-46
2024/02/17 06:42:26;;;;;;;12.80;4.13;;;10.80;99.90;;;;;;5043725;28;20017;-41
2024/02/17 06:44:52;;;;;;;12.45;4.15;;;10.80;99.90;;;;;;5045117;28;20024;-39
2024/02/17 06:47:19;;;;;;;16.77;5.57;;;10.80;99.90;;;;;;5036315;28;20079;-42
2024/02/17 06:49:45;;;;;;;16.08;5.13;;;10.60;99.90;;;;;;5054023;28;20056;-46
2024/02/17 06:52:11;;;;;;;8.48;4.55;;;10.60;99.90;;;;;;5036178;28;20029;-40
2024/02/17 06:54:37;;;;;;;14.50;5.20;;;10.50;99.90;;;;;;5036090;28;20057;-40
2024/02/17 06:57:03;;;;;;;11.35;4.38;;;10.50;99.90;;;;;;5041491;28;20438;-45
2024/02/17 06:59:29;;;;;;;12.07;4.63;;;10.50;99.90;;;;;;5036024;28;20500;-49
2024/02/17 07:01:56;;;;;;;11.88;4.68;;;10.50;99.90;;;;;;5052083;28;20021;-40
2024/02/17 07:04:21;;;;;;;14.23;4.10;;;10.50;99.90;;;;;;5055460;28;20033;-41
2024/02/17 07:06:47;;;;;;;9.32;4.93;;;10.50;99.90;;;;;;5054994;28;20100;-42
2024/02/17 07:09:18;;;;;;;14.60;5.00;;;10.60;99.90;;;;;;5055843;28;20495;-41
2024/02/17 07:11:44;;;;;;;13.45;4.50;;;10.60;99.90;;;;;;5044575;28;20108;-42
2024/02/17 07:14:12;;;;;;;16.58;4.72;;;10.60;99.90;;;;;;5035401;28;20117;-41
2024/02/17 07:16:38;;;;;;;13.60;4.43;;;10.60;99.90;;;;;;5039483;28;20029;-44
2024/02/17 07:19:03;;;;;;;12.32;5.03;;;10.60;99.90;;;;;;5039192;28;20037;-42
2024/02/17 07:21:30;;;;;;;12.98;5.30;;;10.50;99.90;;;;;;5043696;28;20159;-40
2024/02/17 07:23:56;;;;;;;19.67;5.25;;;10.50;99.90;;;;;;5047296;28;20029;-41
2024/02/17 07:26:22;;;;;;;9.68;4.57;;;10.50;99.90;;;;;;5050653;28;20044;-39
2024/02/17 07:28:48;;;;;;;13.90;4.75;;;10.50;99.90;;;;;;5045850;28;20083;-46
2024/02/17 07:31:16;;;;;;;11.65;5.47;;;10.50;99.90;;;;;;5041455;28;20025;-42
2024/02/17 07:33:46;;;;;;;14.18;6.07;;;10.60;99.90;;;;;;5034940;28;20024;-41
2024/02/17 07:36:13;;;;;;;12.18;4.43;;;10.60;99.90;;;;;;5035624;28;20510;-40
2024/02/17 07:38:39;;;;;;;19.17;5.05;;;10.60;99.90;;;;;;5040820;28;20474;-44
2024/02/17 07:41:05;;;;;;;15.85;5.32;;;10.60;99.90;;;;;;5035429;28;20470;-43
2024/02/17 07:43:30;;;;;;;9.18;4.72;;;10.60;99.90;;;;;;5037821;28;20109;-41
2024/02/17 07:45:56;;;;;;;11.32;5.30;;;10.60;99.90;;;;;;5035151;28;20026;-45
2024/02/17 07:48:22;;;;;;;11.07;4.93;;;10.60;99.90;;;;;;5035032;28;20075;-39
2024/02/17 07:50:47;;;;;;;11.80;5.65;;;10.60;99.90;;;;;;5035953;28;20394;-39
2024/02/17 07:53:13;;;;;;;15.70;5.38;;;10.60;99.90;;;;;;5035012;28;20029;-38
2024/02/17 07:55:39;;;;;;;11.65;5.30;;;10.60;99.90;;;;;;5034925;28;20029;-41
2024/02/17 07:58:06;;;;;;;16.17;5.57;;;10.70;99.90;;;;;;5039236;28;20117;-43
2024/02/17 08:00:32;;;;;;;13.77;4.80;;;10.70;99.90;;;;;;5035184;28;20536;-41
2024/02/17 08:02:57;;;;;;;16.83;4.95;;;10.80;99.90;;;;;;5034731;28;20029;-41
2024/02/17 08:05:23;;;;;;;15.98;5.50;;;10.90;99.90;;;;;;5034857;28;20082;-43
2024/02/17 08:07:49;;;;;;;12.38;4.93;;;10.90;99.90;;;;;;5042317;28;20040;-40
2024/02/17 08:10:15;;;;;;;17.63;5.60;;;11.00;99.90;;;;;;5054763;28;20033;-56
2024/02/17 08:12:40;;;;;;;16.60;5.05;;;10.90;99.90;;;;;;5041191;28;20049;-55
2024/02/17 08:15:06;;;;;;;15.10;5.60;;;11.00;99.90;;;;;;5034359;28;20202;-56
2024/02/17 08:17:34;;;;;;;14.30;4.93;;;11.00;99.90;;;;;;5034516;28;20018;-55
2024/02/17 08:20:00;;;;;;;11.13;5.22;;;11.10;99.90;;;;;;5034291;28;20038;-53
2024/02/17 08:22:26;;;;;;;12.82;4.72;;;11.20;99.90;;;;;;5034249;28;20024;-54
2024/02/17 08:24:51;;;;;;;14.50;5.35;;;11.10;99.90;;;;;;5034371;28;20036;-54
2024/02/17 08:27:17;;;;;;;11.43;5.45;;;11.20;99.90;;;;;;5041597;28;20033;-61
2024/02/17 08:29:43;;;;;;;8.70;4.47;;;11.20;99.90;;;;;;5054292;28;20029;-54
2024/02/17 08:32:08;;;;;;;15.73;5.38;;;11.20;99.90;;;;;;5044690;28;20026;-54
2024/02/17 08:34:34;;;;;;;17.70;6.32;;;11.20;99.90;;;;;;5032866;28;20399;-55
2024/02/17 08:37:00;;;;;;;11.73;5.13;;;11.30;99.90;;;;;;5034158;28;20079;-54
2024/02/17 08:39:25;;;;;;;17.77;6.15;;;11.30;99.90;;;;;;5043052;28;20017;-55
2024/02/17 08:41:53;;;;;;;16.65;4.90;;;11.30;99.90;;;;;;5038047;28;20040;-55
2024/02/17 08:44:18;;;;;;;11.65;4.60;;;11.40;99.90;;;;;;5045619;28;20501;-53
2024/02/17 08:46:44;;;;;;;15.40;5.68;;;11.50;99.90;;;;;;5036215;28;20021;-55
2024/02/17 08:49:10;;;;;;;11.10;5.03;;;11.50;99.90;;;;;;5045648;28;20037;-42
2024/02/17 08:51:38;;;;;;;8.43;4.47;;;11.60;99.90;;;;;;5053382;28;20095;-42
2024/02/17 08:54:04;;;;;;;8.00;4.25;;;11.60;99.90;;;;;;5051691;28;20032;-38
2024/02/17 08:56:30;;;;;;;18.23;5.43;;;11.70;99.90;;;;;;5038723;28;20029;-38
2024/02/17 08:58:56;;;;;;;10.85;4.47;;;11.80;99.90;;;;;;5033952;28;20033;-54
2024/02/17 09:01:22;;;;;;;10.90;5.25;;;11.80;99.90;;;;;;5033575;28;20064;-54
2024/02/17 09:03:48;;;;;;;13.45;4.75;;;11.80;99.90;;;;;;5047558;28;20029;-53
2024/02/17 09:06:14;;;;;;;15.07;4.93;;;11.90;99.90;;;;;;5045571;28;20539;-54
2024/02/17 09:08:40;;;;;;;13.30;6.30;;;11.90;99.90;;;;;;5052920;28;20107;-62
2024/02/17 09:11:06;;;;;;;15.73;5.65;;;12.00;99.90;;;;;;5042986;28;20122;-54
2024/02/17 09:13:32;;;;;;;11.65;4.85;;;12.00;99.90;;;;;;5042081;28;20052;-54
2024/02/17 09:15:57;;;;;;;13.02;4.68;;;12.00;99.90;;;;;;5052218;28;20029;-55
2024/02/17 09:18:23;;;;;;;12.52;4.78;;;12.10;99.90;;;;;;5052446;28;20461;-54
2024/02/17 09:20:50;;;;;;;13.27;4.18;;;12.10;99.90;;;;;;5036891;28;20116;-51
2024/02/17 09:23:16;;;;;;;9.88;4.20;;;12.00;99.90;;;;;;5038868;28;20029;-56
2024/02/17 09:25:42;;;;;;;9.50;4.60;;;12.10;99.90;;;;;;5042405;28;20409;-52
2024/02/17 09:28:07;;;;;;;10.23;5.03;;;12.10;99.90;;;;;;5042165;28;20100;-55
2024/02/17 09:30:34;;;;;;;10.65;4.90;;;12.10;99.90;;;;;;5044786;28;20026;-54
2024/02/17 09:33:03;;;;;;;17.58;5.53;;;12.00;99.90;;;;;;5035697;28;20116;-54
2024/02/17 09:35:28;;;;;;;9.15;5.22;;;12.10;99.90;;;;;;5048741;28;20098;-55
2024/02/17 09:37:54;;;;;;;14.73;4.90;;;12.10;99.90;;;;;;5040335;28;20436;-55
2024/02/17 09:40:20;;;;;;;13.27;4.95;;;12.20;99.90;;;;;;5044037;28;20018;-54
2024/02/17 09:42:47;;;;;;;10.75;4.97;;;12.20;99.90;;;;;;5035935;28;20040;-50
2024/02/17 09:45:13;;;;;;;9.77;4.45;;;12.20;99.90;;;;;;5052807;28;20025;-51
2024/02/17 09:47:44;;;;;;;12.18;6.40;;;12.20;99.90;;;;;;5052754;28;20524;-55
2024/02/17 09:50:17;;;;;;;13.15;4.35;;;12.30;99.90;;;;;;5050815;28;20029;-49
2024/02/17 09:52:44;;;;;;;10.50;4.47;;;12.40;99.90;;;;;;5033638;28;20505;-54
2024/02/17 09:55:10;;;;;;;12.00;5.53;;;12.30;99.90;;;;;;5032166;28;20108;-57
2024/02/17 09:57:38;;;;;;;12.32;4.90;;;12.40;99.90;;;;;;5037627;28;20501;-54
2024/02/17 10:00:09;;;;;;;10.02;4.47;;;12.50;99.90;;;;;;5032920;28;20501;-55
2024/02/17 10:02:36;;;;;;;10.10;4.85;;;12.60;99.90;;;;;;5038930;28;20033;-55
2024/02/17 10:05:02;;;;;;;13.63;5.43;;;12.70;99.90;;;;;;5052828;28;20493;-54
2024/02/17 10:07:29;;;;;;;12.98;5.28;;;12.80;99.90;;;;;;5051743;28;20493;-54
2024/02/17 10:09:54;;;;;;;12.55;4.85;;;12.80;99.90;;;;;;5044943;28;20025;-55
2024/02/17 10:12:20;;;;;;;11.68;4.82;;;12.70;99.90;;;;;;5048844;28;20071;-53
2024/02/17 10:14:51;;;;;;;8.43;4.60;;;12.70;99.90;;;;;;5036951;28;20029;-54
2024/02/17 10:17:17;;;;;;;14.45;5.40;;;12.70;99.90;;;;;;5033438;28;20017;-55
2024/02/17 10:19:43;;;;;;;9.35;4.65;;;12.50;99.90;;;;;;5042631;28;20094;-52
2024/02/17 10:22:10;;;;;;;13.15;5.00;;;12.50;99.90;;;;;;5052453;28;20021;-54
2024/02/17 10:24:36;;;;;;;9.82;5.25;;;12.60;99.90;;;;;;5050634;28;20022;-54
2024/02/17 10:27:02;;;;;;;10.10;5.20;;;12.70;99.90;;;;;;5038533;28;20461;-54
2024/02/17 10:29:28;;;;;;;12.07;4.53;;;12.70;99.90;;;;;;5032380;28;20033;-55
2024/02/17 10:31:54;;;;;;;11.95;5.32;;;12.70;99.90;;;;;;5036766;28;20493;-45
2024/02/17 10:34:19;;;;;;;11.40;5.25;;;12.80;99.90;;;;;;5048816;28;20028;-42
2024/02/17 10:36:46;;;;;;;11.30;5.63;;;12.90;99.90;;;;;;5032431;28;20100;-41
2024/02/17 10:39:11;;;;;;;7.15;4.50;;;13.00;99.90;;;;;;5032515;28;20084;-41
2024/02/17 10:41:37;;;;;;;8.98;4.55;;;13.10;99.90;;;;;;5032355;28;20026;-42
2024/02/17 10:44:04;;;;;;;16.63;5.80;;;13.20;99.90;;;;;;5032269;28;20445;-40
2024/02/17 10:46:33;;;;;;;8.68;5.53;;;13.20;99.90;;;;;;5032360;28;20018;-41
2024/02/17 10:49:11;;;;;;;10.27;5.03;;;13.10;99.90;;;;;;5032026;28;20106;-40
2024/02/17 10:51:55;;;;;;;11.57;5.15;;;13.20;99.90;;;;;;5032256;28;20029;-41
2024/02/17 10:54:30;;;;;;;12.20;5.47;;;13.30;99.90;;;;;;5032260;28;20120;-41
2024/02/17 10:56:56;;;;;;;11.85;5.35;;;13.30;99.90;;;;;;5032773;28;20021;-43
2024/02/17 10:59:24;;;;;;;13.18;4.97;;;13.30;99.90;;;;;;5032316;28;20029;-42
2024/02/17 11:01:52;;;;;;;17.60;5.20;;;13.40;99.90;;;;;;5032449;28;20470;-41
2024/02/17 11:04:18;;;;;;;16.23;6.00;;;13.50;99.90;;;;;;5032483;28;20022;-40
2024/02/17 11:06:45;;;;;;;11.88;5.90;;;13.50;99.90;;;;;;5032283;28;20474;-41
2024/02/17 11:09:12;;;;;;;17.35;7.00;;;13.50;99.90;;;;;;5035128;28;20025;-44
2024/02/17 11:11:39;;;;;;;11.40;5.63;;;13.50;99.90;;;;;;5035825;28;20120;-38
2024/02/17 11:14:43;;;;;;;12.70;3.75;;;13.30;99.90;;;;;;5035469;28;20480;-40
2024/02/17 11:17:09;;;;;;;10.75;5.22;;;13.30;99.90;;;;;;5035871;28;20512;-39
2024/02/17 11:19:37;;;;;;;12.00;5.22;;;13.40;99.90;;;;;;5035378;28;20045;-40
2024/02/17 11:22:07;;;;;;;12.05;5.35;;;13.40;99.90;;;;;;5035577;28;20386;-41
2024/02/17 11:24:37;;;;;;;10.23;4.72;;;13.30;99.90;;;;;;5035324;28;20033;-38
2024/02/17 11:27:08;;;;;;;8.25;5.25;;;13.50;99.90;;;;;;5034230;28;20060;-39
2024/02/17 11:29:34;;;;;;;11.20;5.18;;;13.60;99.90;;;;;;5035606;28;20497;-42
2024/02/17 11:32:04;;;;;;;9.15;4.88;;;13.60;99.90;;;;;;5036579;28;20053;-41
2024/02/17 11:34:30;;;;;;;12.85;6.72;;;13.60;99.90;;;;;;5038898;28;20406;-40
2024/02/17 11:36:57;;;;;;;14.38;5.70;;;13.50;99.90;;;;;;5045804;28;20018;-41
2024/02/17 11:39:24;;;;;;;11.90;5.95;;;13.50;99.90;;;;;;5035320;28;20040;-41
2024/02/17 11:41:51;;;;;;;11.98;5.10;;;13.60;99.90;;;;;;5050917;28;20469;-56
2024/02/17 11:44:16;;;;;;;12.65;7.15;;;13.60;99.90;;;;;;5054947;28;20032;-53
2024/02/17 11:46:43;;;;;;;13.50;5.07;;;13.70;99.90;;;;;;5052580;28;20033;-53
2024/02/17 11:49:19;;;;;;;15.27;5.68;;;13.60;99.90;;;;;;5054012;28;20025;-52
2024/02/17 11:51:48;;;;;;;16.90;6.35;;;13.70;99.90;;;;;;5051250;28;20108;-53
2024/02/17 11:54:14;;;;;;;16.63;7.03;;;13.70;99.90;;;;;;5034814;28;20017;-53
2024/02/17 11:56:42;;;;;;;9.90;5.82;;;13.70;99.90;;;;;;5044991;28;20044;-55
2024/02/17 11:59:09;;;;;;;14.40;5.97;;;13.80;99.90;;;;;;5034943;28;20041;-56
2024/02/17 12:01:35;;;;;;;13.68;6.65;;;13.80;99.90;;;;;;5034800;28;20532;-52
2024/02/17 12:04:00;;;;;;;12.15;6.35;;;13.80;99.90;;;;;;5034704;28;20022;-54
2024/02/17 12:06:26;;;;;;;13.45;6.75;;;13.80;99.90;;;;;;5035021;28;20382;-53
2024/02/17 12:08:52;;;;;;;13.38;6.10;;;13.80;99.90;;;;;;5034991;28;20060;-50
2024/02/17 12:11:19;;;;;;;9.70;6.10;;;13.80;99.90;;;;;;5033297;28;20029;-53
2024/02/17 12:13:45;;;;;;;7.90;5.40;;;13.80;99.90;;;;;;5034652;28;20108;-55
2024/02/17 12:16:11;;;;;;;17.70;5.60;;;13.90;99.90;;;;;;5034620;28;20026;-52
2024/02/17 12:18:37;;;;;;;12.77;5.50;;;14.00;99.90;;;;;;5034577;28;20022;-55
2024/02/17 12:21:06;;;;;;;14.75;6.45;;;14.00;99.90;;;;;;5043396;28;20473;-55
2024/02/17 12:23:37;;;;;;;18.67;6.90;;;14.00;99.90;;;;;;5052704;28;20111;-54
2024/02/17 12:26:06;;;;;;;17.00;6.05;;;14.10;99.90;;;;;;5046050;28;20022;-53
2024/02/17 12:28:33;;;;;;;18.30;6.30;;;14.00;99.90;;;;;;5034241;28;20037;-54
2024/02/17 12:30:59;;;;;;;10.32;5.45;;;14.00;99.90;;;;;;5034200;28;20516;-55
2024/02/17 12:33:24;;;;;;;12.25;5.85;;;13.90;99.90;;;;;;5036434;28;20082;-55
2024/02/17 12:35:52;;;;;;;16.23;6.85;;;13.80;99.90;;;;;;5048935;28;20108;-55
2024/02/17 12:38:20;;;;;;;14.57;5.80;;;13.70;99.90;;;;;;5053616;28;20031;-55